Time;durP1;ratioP1;P1;durP2;ratioP2;P2;SDS_P1;SDS_P2;PMS_P1;PMS_P2;Temp;Humidity;BMP_temperature;BMP_pressure;BME280_temperature;BME280_humidity;BME280_pressure;Samples;Min_cycle;Max_cycle;Signal;HPM_P1;HPM_P2
2023/12/15 00:00:21;;;;;;;5.38;3.75;;;;;;;-1.26;100.00;101942.22;5056826;28;20028;-70
2023/12/15 00:02:46;;;;;;;8.07;4.05;;;;;;;-1.23;100.00;101947.31;5077372;28;20039;-70
2023/12/15 00:05:12;;;;;;;5.90;4.05;;;;;;;-1.21;100.00;101938.38;5060943;28;20545;-70
2023/12/15 00:07:38;;;;;;;7.20;4.28;;;;;;;-1.18;100.00;101950.56;5079259;28;20028;-73
2023/12/15 00:10:04;;;;;;;6.32;4.45;;;;;;;-1.19;100.00;101946.22;5079625;28;20033;-71
2023/12/15 00:12:29;;;;;;;5.97;4.22;;;;;;;-1.14;100.00;101959.97;5079213;28;20028;-71
2023/12/15 00:14:55;;;;;;;6.57;4.05;;;;;;;-1.42;100.00;101898.31;5061507;28;20037;-71
2023/12/15 00:17:20;;;;;;;5.38;3.85;;;;;;;-1.09;100.00;101957.03;5061493;28;20035;-71
2023/12/15 00:19:45;;;;;;;6.40;4.00;;;;;;;-1.06;100.00;101956.84;5044695;28;20024;-70
2023/12/15 00:22:11;;;;;;;5.57;4.25;;;;;;;-1.05;100.00;101956.75;5043847;28;20031;-70
2023/12/15 00:24:36;;;;;;;7.47;3.90;;;;;;;-1.02;100.00;101961.03;5077746;28;20036;-70
2023/12/15 00:27:02;;;;;;;4.68;3.90;;;;;;;-0.99;100.00;101955.53;5062878;28;20032;-69
2023/12/15 00:29:27;;;;;;;6.05;3.97;;;;;;;-0.97;100.00;101961.56;5078003;28;20032;-70
2023/12/15 00:31:53;;;;;;;5.65;4.15;;;;;;;-1.03;100.00;101943.44;5079645;28;20025;-69
2023/12/15 00:34:18;;;;;;;6.05;4.03;;;;;;;-0.93;100.00;101959.56;5079066;28;20037;-70
2023/12/15 00:36:43;;;;;;;5.70;3.92;;;;;;;-1.06;100.00;101933.94;5044675;28;20117;-69
2023/12/15 00:39:09;;;;;;;7.18;3.60;;;;;;;-0.89;100.00;101956.66;5078834;28;20034;-70
2023/12/15 00:41:34;;;;;;;6.00;3.90;;;;;;;-1.07;100.00;101921.66;5078514;28;20103;-71
2023/12/15 00:44:02;;;;;;;5.68;3.40;;;;;;;-0.86;100.00;101955.59;5043727;28;20028;-71
2023/12/15 00:46:27;;;;;;;7.10;3.72;;;;;;;-0.85;100.00;101949.38;5076579;28;20024;-71
2023/12/15 00:48:53;;;;;;;4.72;3.70;;;;;;;-0.84;100.00;101959.84;5060641;28;20024;-76
2023/12/15 00:51:18;;;;;;;4.82;3.70;;;;;;;-0.83;100.00;101955.41;5059699;28;20021;-71
2023/12/15 00:53:47;;;;;;;4.18;3.55;;;;;;;-0.97;100.00;101922.78;5059502;28;20081;-70
2023/12/15 00:56:13;;;;;;;5.28;3.75;;;;;;;-0.89;100.00;101939.94;5042316;28;20024;-72
2023/12/15 00:58:38;;;;;;;6.50;4.00;;;;;;;-0.81;100.00;101943.81;5075832;28;20372;-72
2023/12/15 01:01:04;;;;;;;5.22;3.80;;;;;;;-0.79;100.00;101951.66;5077555;28;20029;-71
2023/12/15 01:03:30;;;;;;;4.60;3.40;;;;;;;-0.76;100.00;101954.09;5075868;28;20052;-70
2023/12/15 01:05:56;;;;;;;6.10;3.47;;;;;;;-0.75;100.00;101947.84;5076944;28;20035;-71
2023/12/15 01:08:22;;;;;;;4.15;3.05;;;;;;;-0.73;100.00;101956.50;5077206;28;20020;-71
2023/12/15 01:10:48;;;;;;;3.67;2.83;;;;;;;-0.83;100.00;101939.56;5042187;28;20043;-72
2023/12/15 01:13:14;;;;;;;4.95;2.63;;;;;;;-0.67;100.00;101952.66;5042815;28;20505;-70
2023/12/15 01:15:39;;;;;;;3.35;2.60;;;;;;;-0.62;100.00;101954.06;5077314;28;20064;-71
2023/12/15 01:18:05;;;;;;;2.63;2.08;;;;;;;-0.58;100.00;101950.25;5061227;28;20029;-71
2023/12/15 01:20:30;;;;;;;5.57;2.65;;;;;;;-0.53;100.00;101955.25;5062767;28;20056;-73
2023/12/15 01:22:55;;;;;;;3.78;2.80;;;;;;;-0.49;100.00;101940.91;5080219;28;20032;-71
2023/12/15 01:25:21;;;;;;;3.20;2.47;;;;;;;-0.44;100.00;101935.31;5062596;28;20044;-69
2023/12/15 01:27:46;;;;;;;3.95;2.45;;;;;;;-0.42;100.00;101933.41;5080398;28;20029;-69
2023/12/15 01:30:12;;;;;;;4.15;2.35;;;;;;;-0.40;100.00;101931.50;5079070;28;20504;-71
2023/12/15 01:32:37;;;;;;;5.35;2.60;;;;;;;-0.36;100.00;101933.03;5078768;28;20107;-72
2023/12/15 01:35:04;;;;;;;3.97;2.33;;;;;;;-0.36;100.00;101933.03;5079913;28;20032;-70
2023/12/15 01:37:30;;;;;;;3.25;2.30;;;;;;;-0.38;100.00;101937.56;5062548;28;20498;-73
2023/12/15 01:39:55;;;;;;;3.85;2.50;;;;;;;-0.43;100.00;101923.75;5045991;28;20032;-71
2023/12/15 01:42:20;;;;;;;6.65;2.60;;;;;;;-0.36;100.00;101928.56;5060911;28;20468;-70
2023/12/15 01:44:46;;;;;;;6.20;2.42;;;;;;;-0.38;100.00;101926.97;5078007;28;20167;-70
2023/12/15 01:47:13;;;;;;;5.95;2.90;;;;;;;-0.41;100.00;101924.53;5078799;28;20027;-71
2023/12/15 01:49:39;;;;;;;4.97;2.90;;;;;;;-0.37;100.00;101929.50;5077672;28;20028;-71
2023/12/15 01:52:05;;;;;;;5.43;2.58;;;;;;;-0.36;100.00;101933.03;5079716;28;20031;-70
2023/12/15 01:54:31;;;;;;;5.22;2.85;;;;;;;-0.38;100.00;101927.81;5061387;28;20032;-71
2023/12/15 01:56:57;;;;;;;4.00;2.10;;;;;;;-0.55;100.00;101894.56;5061320;28;20108;-70
2023/12/15 01:59:22;;;;;;;4.65;2.45;;;;;;;-0.35;100.00;101921.47;5079940;28;20111;-71
2023/12/15 02:01:48;;;;;;;6.28;2.50;;;;;;;-0.49;100.00;101896.78;5045076;28;20024;-69
2023/12/15 02:04:13;;;;;;;3.08;2.20;;;;;;;-0.30;100.00;101922.88;5061074;28;20100;-70
2023/12/15 02:06:38;;;;;;;4.75;2.22;;;;;;;-0.29;100.00;101918.44;5077947;28;20056;-71
2023/12/15 02:09:04;;;;;;;4.57;2.33;;;;;;;-0.30;100.00;101922.88;5079665;28;20054;-71
2023/12/15 02:11:29;;;;;;;4.50;2.60;;;;;;;-0.28;100.00;101922.78;5044395;28;20029;-72
2023/12/15 02:13:54;;;;;;;3.63;2.40;;;;;;;-0.28;100.00;101920.13;5061520;28;20036;-71
2023/12/15 02:16:20;;;;;;;6.65;2.95;;;;;;;-0.25;100.00;101922.56;5061049;28;20510;-71
2023/12/15 02:18:45;;;;;;;4.57;3.05;;;;;;;-0.24;100.00;101925.09;5063091;28;20487;-71
2023/12/15 02:21:11;;;;;;;5.35;3.00;;;;;;;-0.26;100.00;101913.78;5081512;28;20027;-71
2023/12/15 02:23:37;;;;;;;3.58;2.58;;;;;;;-0.19;100.00;101916.03;5047381;28;20039;-71
2023/12/15 02:26:03;;;;;;;4.47;2.97;;;;;;;-0.17;100.00;101914.13;5079973;28;20032;-71
2023/12/15 02:28:28;;;;;;;5.03;3.20;;;;;;;-0.16;100.00;101921.13;5080250;28;20039;-72
2023/12/15 02:30:53;;;;;;;5.47;2.95;;;;;;;-0.14;100.00;101924.50;5046708;28;20029;-70
2023/12/15 02:33:19;;;;;;;4.55;3.20;;;;;;;-0.15;100.00;101934.22;5047330;28;20028;-71
2023/12/15 02:35:47;;;;;;;4.70;3.25;;;;;;;-0.13;100.00;101932.34;5063990;28;20040;-73
2023/12/15 02:38:18;;;;;;;5.22;3.13;;;;;;;-0.10;100.00;101928.63;5063980;28;20399;-70
2023/12/15 02:40:44;;;;;;;6.82;2.97;;;;;;;-0.08;100.00;101934.69;5048440;28;20045;-71
2023/12/15 02:43:10;;;;;;;4.85;2.80;;;;;;;-0.07;100.00;101931.91;5081375;28;20466;-70
2023/12/15 02:45:36;;;;;;;6.03;3.28;;;;;;;-0.05;100.00;101932.66;5063869;28;20051;-70
2023/12/15 02:48:02;;;;;;;4.72;3.08;;;;;;;-0.04;100.00;101944.09;5081687;28;20074;-71
2023/12/15 02:50:28;;;;;;;4.10;2.70;;;;;;;-0.02;100.00;101943.03;5063328;28;20032;-71
2023/12/15 02:52:53;;;;;;;4.13;2.85;;;;;;;-0.01;100.00;101941.25;5081921;28;20097;-70
2023/12/15 02:55:18;;;;;;;4.10;2.90;;;;;;;-0.05;100.00;101922.09;5062228;28;20130;-70
2023/12/15 02:57:44;;;;;;;4.78;2.80;;;;;;;-0.11;100.00;101906.63;5075190;28;20107;-71
2023/12/15 03:00:10;;;;;;;6.22;3.08;;;;;;;0.03;100.00;101937.44;5061932;28;20039;-71
2023/12/15 03:02:35;;;;;;;6.93;3.17;;;;;;;-0.08;100.00;101910.88;5078930;28;20059;-72
2023/12/15 03:05:01;;;;;;;5.22;2.65;;;;;;;0.07;100.00;101943.41;5060561;28;20020;-71
2023/12/15 03:07:26;;;;;;;5.90;3.00;;;;;;;0.09;100.00;101946.78;5061175;28;20040;-76
2023/12/15 03:09:51;;;;;;;4.80;2.88;;;;;;;0.12;100.00;101943.91;5044314;28;20024;-71
2023/12/15 03:12:17;;;;;;;4.03;2.72;;;;;;;0.14;100.00;101949.97;5044235;28;20074;-71
2023/12/15 03:14:42;;;;;;;5.07;2.53;;;;;;;0.15;100.00;101946.38;5043639;28;20054;-71
2023/12/15 03:17:07;;;;;;;4.68;3.15;;;;;;;0.16;100.00;101946.25;5044780;28;20028;-71
2023/12/15 03:19:33;;;;;;;5.38;3.03;;;;;;;0.20;100.00;101953.06;5080470;28;20081;-70
2023/12/15 03:21:58;;;;;;;5.25;2.90;;;;;;;0.20;100.00;101939.81;5062505;28;20091;-72
2023/12/15 03:24:23;;;;;;;5.00;3.00;;;;;;;0.23;100.00;101936.09;5045599;28;20479;-72
2023/12/15 03:26:49;;;;;;;6.70;3.65;;;;;;;0.27;100.00;101929.66;5079273;28;20081;-71
2023/12/15 03:29:15;;;;;;;7.05;4.10;;;;;;;0.33;100.00;101937.19;5080472;28;20032;-72
2023/12/15 03:31:41;;;;;;;10.85;5.22;;;;;;;0.38;100.00;101937.69;5079447;28;20032;-70
2023/12/15 03:34:07;;;;;;;14.70;6.22;;;;;;;0.40;100.00;101927.03;5079812;28;20033;-72
2023/12/15 03:36:35;;;;;;;10.98;6.25;;;;;;;0.52;100.00;101930.59;5045340;28;20059;-71
2023/12/15 03:39:01;;;;;;;9.80;6.38;;;;;;;0.56;100.00;101940.03;5080111;28;20042;-71
2023/12/15 03:41:26;;;;;;;9.38;6.57;;;;;;;0.62;100.00;101936.97;5078499;28;20040;-70
2023/12/15 03:43:51;;;;;;;14.63;6.90;;;;;;;0.66;100.00;101939.31;5055548;28;20055;-71
2023/12/15 03:46:17;;;;;;;11.45;6.80;;;;;;;0.55;100.00;101915.34;5044545;28;20033;-70
2023/12/15 03:48:42;;;;;;;10.32;7.25;;;;;;;0.59;100.00;101906.22;5044441;28;20123;-70
2023/12/15 03:51:08;;;;;;;13.05;7.18;;;;;;;0.76;100.00;101931.53;5060835;28;20037;-71
2023/12/15 03:53:34;;;;;;;14.82;7.28;;;;;;;0.78;100.00;101932.28;5044895;28;20025;-73
2023/12/15 03:56:00;;;;;;;13.32;7.15;;;;;;;0.81;100.00;101932.06;5062143;28;20036;-74
2023/12/15 03:58:25;;;;;;;15.98;8.50;;;;;;;0.79;100.00;101931.31;5079377;28;20388;-70
2023/12/15 04:00:51;;;;;;;12.65;7.32;;;;;;;0.86;100.00;101939.69;5045314;28;20038;-70
2023/12/15 04:03:17;;;;;;;16.20;7.32;;;;;;;0.86;100.00;101924.66;5029006;28;20078;-71
2023/12/15 04:05:42;;;;;;;11.10;7.35;;;;;;;0.89;100.00;101939.47;5060884;28;20340;-72
2023/12/15 04:08:07;;;;;;;17.48;8.50;;;;;;;0.92;100.00;101933.97;5060748;28;20032;-72
2023/12/15 04:10:33;;;;;;;18.48;8.90;;;;;;;0.94;100.00;101932.91;5060133;28;20039;-70
2023/12/15 04:12:58;;;;;;;20.23;8.15;;;;;;;0.98;100.00;101922.09;5077744;28;20032;-70
2023/12/15 04:15:23;;;;;;;19.65;8.73;;;;;;;0.94;100.00;101913.50;5043146;28;20063;-71
2023/12/15 04:17:49;;;;;;;17.45;9.77;;;;;;;1.03;100.00;101928.75;5079061;28;20020;-71
2023/12/15 04:20:15;;;;;;;21.00;9.65;;;;;;;0.97;100.00;101909.81;5061218;28;20039;-70
2023/12/15 04:22:40;;;;;;;21.33;10.63;;;;;;;1.09;100.00;101919.50;5028552;28;20036;-70
2023/12/15 04:25:06;;;;;;;20.90;10.00;;;;;;;1.12;100.00;101924.59;5044904;28;20040;-70
2023/12/15 04:27:31;;;;;;;25.98;11.02;;;;;;;1.12;100.00;101935.19;5079183;28;20459;-69
2023/12/15 04:29:57;;;;;;;21.88;11.27;;;;;;;1.00;100.00;101904.28;5060788;28;20048;-71
2023/12/15 04:32:23;;;;;;;27.55;12.18;;;;;;;1.06;100.00;101904.69;5079431;28;20025;-70
2023/12/15 04:34:48;;;;;;;25.92;12.77;;;;;;;1.20;100.00;101916.94;5060276;28;20059;-70
2023/12/15 04:37:14;;;;;;;27.30;13.25;;;;;;;1.22;100.00;101914.16;5044685;28;20032;-70
2023/12/15 04:39:39;;;;;;;27.83;13.73;;;;;;;1.20;100.00;101900.19;5043897;28;20025;-72
2023/12/15 04:42:05;;;;;;;32.30;14.13;;;;;;;1.28;100.00;101909.25;5044606;28;20048;-70
2023/12/15 04:44:30;;;;;;;32.55;14.45;;;;;;;1.31;100.00;101917.00;5061251;28;20364;-70
2023/12/15 04:46:56;;;;;;;32.28;15.13;;;;;;;1.33;100.00;101917.75;5044459;28;20465;-70
2023/12/15 04:49:21;;;;;;;33.63;15.93;;;;;;;1.37;100.00;101915.72;5044048;28;20024;-70
2023/12/15 04:51:47;;;;;;;42.72;17.88;;;;;;;1.37;100.00;101921.84;5078932;28;20440;-70
2023/12/15 04:54:13;;;;;;;43.35;18.13;;;;;;;1.32;100.00;101902.78;5031597;28;20029;-70
2023/12/15 04:56:38;;;;;;;40.53;18.10;;;;;;;1.44;100.00;101902.84;5082136;28;20028;-70
2023/12/15 04:59:03;;;;;;;48.08;18.90;;;;;;;1.48;100.00;101914.91;5048083;28;20029;-70
2023/12/15 05:01:29;;;;;;;47.92;19.52;;;;;;;1.50;100.00;101908.56;5064770;28;20054;-70
2023/12/15 05:03:54;;;;;;;47.53;20.20;;;;;;;1.53;100.00;101910.13;5082512;28;20119;-70
2023/12/15 05:06:21;;;;;;;48.22;20.13;;;;;;;1.56;100.00;101896.66;5082400;28;20028;-69
2023/12/15 05:08:53;;;;;;;53.90;21.10;;;;;;;1.59;100.00;101907.00;5082228;28;20043;-69
2023/12/15 05:11:19;;;;;;;55.88;21.23;;;;;;;1.53;100.00;101896.88;5078101;28;20041;-68
2023/12/15 05:13:44;;;;;;;51.55;21.13;;;;;;;1.48;100.00;101894.53;5079968;28;20599;-69
2023/12/15 05:16:09;;;;;;;70.57;23.95;;;;;;;1.58;100.00;101913.28;5045657;28;20036;-69
2023/12/15 05:18:35;;;;;;;59.58;23.15;;;;;;;1.63;100.00;101912.00;5080250;28;20036;-71
2023/12/15 05:21:00;;;;;;;70.80;24.33;;;;;;;1.54;100.00;101882.66;5080246;28;20019;-70
2023/12/15 05:23:26;;;;;;;63.30;23.95;;;;;;;1.53;100.00;101876.50;5062424;28;20120;-70
2023/12/15 05:25:51;;;;;;;63.13;22.65;;;;;;;1.72;100.00;101905.13;5081791;28;20073;-69
2023/12/15 05:28:17;;;;;;;69.35;23.27;;;;;;;1.74;100.00;101903.22;5080793;28;20052;-69
2023/12/15 05:30:42;;;;;;;64.10;22.40;;;;;;;1.77;100.00;101908.31;5079654;28;20654;-71
2023/12/15 05:33:08;;;;;;;78.00;23.80;;;;;;;1.80;100.00;101912.53;5063281;28;20498;-70
2023/12/15 05:35:33;;;;;;;79.03;23.10;;;;;;;1.76;100.00;101911.94;5060462;28;20029;-71
2023/12/15 05:38:00;;;;;;;54.35;18.20;;;;;;;1.88;100.00;101918.09;5078919;28;20035;-73
2023/12/15 05:40:26;;;;;;;96.18;23.25;;;;;;;1.90;100.00;101925.97;5079071;28;20065;-72
2023/12/15 05:42:51;;;;;;;78.43;22.38;;;;;;;1.91;100.00;101939.09;5079005;28;20027;-71
2023/12/15 05:45:17;;;;;;;81.55;21.35;;;;;;;1.75;100.00;101907.56;5079445;28;20060;-68
2023/12/15 05:47:43;;;;;;;101.38;22.13;;;;;;;1.76;100.00;101908.44;5062971;28;20105;-72
2023/12/15 05:50:09;;;;;;;73.90;19.98;;;;;;;1.99;100.00;101942.06;5061871;28;20052;-70
2023/12/15 05:52:34;;;;;;;89.43;20.75;;;;;;;2.02;100.00;101956.88;5078556;28;20028;-71
2023/12/15 05:54:59;;;;;;;80.03;20.08;;;;;;;2.04;100.00;101942.53;5043775;28;20099;-71
2023/12/15 05:57:25;;;;;;;56.38;17.70;;;;;;;2.04;100.00;101947.84;5078601;28;20047;-71
2023/12/15 05:59:50;;;;;;;111.18;19.23;;;;;;;2.09;100.00;101947.53;5058769;28;20032;-71
2023/12/15 06:02:16;;;;;;;85.28;18.00;;;;;;;2.13;100.00;101948.13;5077105;28;20070;-71
2023/12/15 06:04:41;;;;;;;122.53;20.73;;;;;;;2.09;100.00;101948.38;5075421;28;20032;-71
2023/12/15 06:07:06;;;;;;;91.50;18.55;;;;;;;2.16;100.00;101956.72;5026404;28;20490;-71
2023/12/15 06:09:32;;;;;;;100.00;18.83;;;;;;;2.07;100.00;101944.13;5060637;28;20040;-70
2023/12/15 06:11:57;;;;;;;91.03;18.80;;;;;;;2.06;100.00;101929.16;5043416;28;20124;-73
2023/12/15 06:14:23;;;;;;;104.07;20.40;;;;;;;2.17;100.00;101945.13;5061483;28;20387;-71
2023/12/15 06:16:48;;;;;;;121.90;20.92;;;;;;;2.19;100.00;101945.84;5060611;28;20084;-69
2023/12/15 06:19:14;;;;;;;112.60;20.45;;;;;;;2.19;100.00;101953.81;5045064;28;20077;-70
2023/12/15 06:21:40;;;;;;;173.77;23.45;;;;;;;2.20;100.00;101970.59;5079436;28;20052;-71
2023/12/15 06:24:06;;;;;;;116.93;20.48;;;;;;;2.22;100.00;101960.69;5045279;28;20052;-71
2023/12/15 06:26:31;;;;;;;124.07;21.67;;;;;;;2.24;100.00;101961.44;5062172;28;20056;-70
2023/12/15 06:28:56;;;;;;;157.45;22.88;;;;;;;2.26;100.00;101957.69;5080772;28;20028;-70
2023/12/15 06:31:25;;;;;;;125.22;20.65;;;;;;;2.28;100.00;101955.75;5080544;28;20037;-71
2023/12/15 06:33:51;;;;;;;110.95;19.90;;;;;;;2.30;100.00;101963.63;5080047;28;20020;-71
2023/12/15 06:36:18;;;;;;;205.60;24.88;;;;;;;2.30;100.00;101956.50;5062176;28;20032;-69
2023/12/15 06:38:44;;;;;;;172.20;22.73;;;;;;;2.31;100.00;101946.72;5046019;28;20040;-69
2023/12/15 06:41:13;;;;;;;245.73;25.08;;;;;;;2.32;100.00;101943.97;5060731;28;20048;-70
2023/12/15 06:43:43;;;;;;;209.10;24.45;;;;;;;2.33;100.00;101937.66;5043543;28;20446;-70
2023/12/15 06:46:09;;;;;;;156.50;24.15;;;;;;;2.33;100.00;101942.97;5078927;28;20023;-70
2023/12/15 06:48:35;;;;;;;189.60;24.58;;;;;;;2.34;100.00;101941.16;5061245;28;20395;-70
2023/12/15 06:51:01;;;;;;;168.25;23.92;;;;;;;2.34;100.00;101943.81;5079480;28;20028;-70
2023/12/15 06:53:28;;;;;;;95.20;21.42;;;;;;;2.25;100.00;101939.22;5079491;28;20029;-70
2023/12/15 06:55:53;;;;;;;267.45;26.88;;;;;;;2.37;100.00;101950.72;5060597;28;20028;-70
2023/12/15 06:58:19;;;;;;;255.45;26.17;;;;;;;2.37;100.00;101964.00;5061191;28;20372;-70
2023/12/15 07:00:44;;;;;;;95.43;20.27;;;;;;;2.17;100.00;101938.97;5060844;28;20028;-70
2023/12/15 07:03:10;;;;;;;270.83;28.95;;;;;;;2.35;100.00;101962.31;5079342;28;20088;-71
2023/12/15 07:05:35;;;;;;;205.27;25.83;;;;;;;2.36;100.00;101960.50;5077582;28;20209;-70
2023/12/15 07:08:02;;;;;;;214.73;23.27;;;;;;;2.28;100.00;101950.44;5060966;28;20028;-71
2023/12/15 07:10:27;;;;;;;247.75;24.15;;;;;;;2.28;100.00;101968.19;5058634;28;20094;-70
2023/12/15 07:12:52;;;;;;;182.90;23.70;;;;;;;2.38;100.00;101989.59;5078334;28;20218;-70
2023/12/15 07:15:18;;;;;;;261.90;25.20;;;;;;;2.38;100.00;101984.28;5060412;28;20068;-71
2023/12/15 07:17:45;;;;;;;164.27;22.38;;;;;;;2.30;100.00;101985.72;5077109;28;20486;-70
2023/12/15 07:20:11;;;;;;;278.17;26.85;;;;;;;2.38;100.00;101994.91;5060666;28;20028;-70
2023/12/15 07:22:37;;;;;;;368.75;33.90;;;;;;;2.37;100.00;101994.06;5058919;28;20040;-72
2023/12/15 07:25:03;;;;;;;271.88;31.15;;;;;;;2.24;100.00;101969.41;5076479;28;20044;-70
2023/12/15 07:27:28;;;;;;;293.95;28.05;;;;;;;2.37;100.00;101982.59;5058604;28;20077;-70
2023/12/15 07:29:54;;;;;;;200.02;23.10;;;;;;;2.37;100.00;101982.59;5042385;28;20060;-70
2023/12/15 07:32:20;;;;;;;313.40;26.95;;;;;;;2.38;100.00;101989.59;5042648;28;20448;-71
2023/12/15 07:34:45;;;;;;;468.92;30.75;;;;;;;2.38;100.00;101995.75;5076732;28;20036;-70
2023/12/15 07:37:11;;;;;;;143.20;20.85;;;;;;;2.37;100.00;101988.75;5041075;28;20044;-70
2023/12/15 07:39:36;;;;;;;339.35;25.15;;;;;;;2.27;100.00;101971.81;5059073;28;20054;-70
2023/12/15 07:42:01;;;;;;;256.98;29.20;;;;;;;2.34;100.00;101987.16;5072285;28;20214;-70
2023/12/15 07:44:27;;;;;;;205.10;21.95;;;;;;;2.43;100.00;101998.91;5057558;28;20114;-70
2023/12/15 07:46:55;;;;;;;212.25;20.90;;;;;;;2.12;100.00;101939.31;5057603;28;20020;-70
2023/12/15 07:49:21;;;;;;;370.77;24.55;;;;;;;2.45;100.00;101996.13;5042292;28;20418;-69
2023/12/15 07:51:47;;;;;;;172.80;18.45;;;;;;;2.37;100.00;101990.56;5074909;28;20513;-70
2023/12/15 07:54:12;;;;;;;302.48;25.23;;;;;;;2.45;100.00;102001.44;5057720;28;20024;-71
2023/12/15 07:56:37;;;;;;;255.77;19.48;;;;;;;2.49;100.00;102014.38;5057825;28;20441;-69
2023/12/15 07:59:03;;;;;;;202.13;28.00;;;;;;;2.51;100.00;102012.44;5058064;28;20032;-70
2023/12/15 08:01:28;;;;;;;181.60;20.13;;;;;;;2.53;100.00;102021.16;5041471;28;20032;-70
2023/12/15 08:03:53;;;;;;;113.43;16.33;;;;;;;2.56;100.00;102015.59;5076640;28;20051;-70
2023/12/15 08:06:19;;;;;;;115.45;16.23;;;;;;;2.42;100.00;101999.00;5076098;28;20021;-70
2023/12/15 08:08:47;;;;;;;137.07;21.40;;;;;;;2.51;100.00;102016.91;5058126;28;20024;-70
2023/12/15 08:11:13;;;;;;;150.98;21.48;;;;;;;2.58;100.00;102026.97;5076466;28;20040;-70
2023/12/15 08:13:40;;;;;;;131.55;16.02;;;;;;;2.59;100.00;102026.00;5058098;28;20413;-69
2023/12/15 08:16:07;;;;;;;207.07;27.58;;;;;;;2.61;100.00;102031.19;5058415;28;20032;-69
2023/12/15 08:18:33;;;;;;;389.08;28.20;;;;;;;2.62;100.00;102027.59;5075884;28;20779;-69
2023/12/15 08:20:59;;;;;;;319.40;24.83;;;;;;;2.51;100.00;102006.28;5058414;28;20047;-69
2023/12/15 08:23:25;;;;;;;185.73;18.58;;;;;;;2.67;100.00;102033.38;5076208;28;20131;-69
2023/12/15 08:25:50;;;;;;;210.73;20.77;;;;;;;2.70;100.00;102032.31;5040844;28;20033;-69
2023/12/15 08:28:15;;;;;;;104.85;16.80;;;;;;;2.71;100.00;102032.19;5044362;28;20041;-69
2023/12/15 08:30:41;;;;;;;150.40;20.75;;;;;;;2.76;100.00;102031.84;5062030;28;20086;-69
2023/12/15 08:33:07;;;;;;;100.78;18.92;;;;;;;2.81;100.00;102040.28;5079475;28;20037;-69
2023/12/15 08:35:32;;;;;;;200.57;23.02;;;;;;;2.85;100.00;102035.59;5079246;28;20112;-69
2023/12/15 08:37:58;;;;;;;360.95;26.13;;;;;;;2.80;100.00;102018.19;5061532;28;20037;-69
2023/12/15 08:40:24;;;;;;;253.85;21.52;;;;;;;2.86;100.00;102034.63;5074972;28;20084;-69
2023/12/15 08:42:50;;;;;;;154.20;18.95;;;;;;;2.92;100.00;102042.13;5058073;28;20043;-69
2023/12/15 08:45:15;;;;;;;264.80;23.85;;;;;;;2.93;100.00;102046.47;5058185;28;20033;-69
2023/12/15 08:47:41;;;;;;;213.68;20.50;;;;;;;2.94;100.00;102038.38;5059484;28;20480;-69
2023/12/15 08:50:06;;;;;;;219.85;22.23;;;;;;;2.97;100.00;102040.81;5059738;28;20032;-69
2023/12/15 08:52:33;;;;;;;66.57;13.00;;;;;;;2.96;100.00;102032.97;5041545;28;20127;-69
2023/12/15 08:54:58;;;;;;;108.30;14.85;;;;;;;3.11;100.00;102042.38;5059537;28;20091;-69
2023/12/15 08:57:23;;;;;;;100.82;14.88;;;;;;;3.02;100.00;102016.53;5058102;28;20029;-69
2023/12/15 08:59:49;;;;;;;70.35;14.38;;;;;;;3.28;100.00;102038.41;5041843;28;20120;-69
2023/12/15 09:02:14;;;;;;;54.47;13.38;;;;;;;3.39;100.00;102035.75;5042121;28;20479;-70
2023/12/15 09:04:39;;;;;;;94.72;14.65;;;;;;;3.45;100.00;102045.91;5059523;28;20451;-70
2023/12/15 09:07:08;;;;;;;71.93;13.75;;;;;;;3.38;100.00;102028.75;5059417;28;20100;-69
2023/12/15 09:09:34;;;;;;;78.80;13.07;;;;;;;3.60;100.00;102056.28;5059452;28;20021;-70
2023/12/15 09:12:00;;;;;;;84.07;12.85;;;;;;;3.62;100.00;102063.19;5058255;28;20103;-69
2023/12/15 09:14:26;;;;;;;70.82;13.98;;;;;;;3.58;100.00;102066.22;5059374;28;20032;-69
2023/12/15 09:16:52;;;;;;;87.80;13.77;;;;;;;3.60;100.00;102072.25;5058443;28;20032;-69
2023/12/15 09:19:17;;;;;;;68.05;12.40;;;;;;;3.70;100.00;102086.50;5057364;28;20398;-69
2023/12/15 09:21:43;;;;;;;98.45;13.82;;;;;;;3.71;100.00;102073.09;5057858;28;20036;-69
2023/12/15 09:24:08;;;;;;;87.30;13.13;;;;;;;3.73;100.00;102091.59;5057606;28;20552;-70
2023/12/15 09:26:34;;;;;;;91.82;13.02;;;;;;;3.74;100.00;102087.94;5057564;28;20029;-70
2023/12/15 09:28:59;;;;;;;66.70;11.73;;;;;;;3.75;100.00;102095.84;5057880;28;20028;-70
2023/12/15 09:31:24;;;;;;;73.15;12.13;;;;;;;3.75;100.00;102087.00;5058713;28;20025;-69
2023/12/15 09:33:50;;;;;;;66.05;12.55;;;;;;;3.83;100.00;102100.53;5057487;28;20078;-69
2023/12/15 09:36:15;;;;;;;76.68;13.68;;;;;;;3.86;100.00;102091.47;5057289;28;20111;-69
2023/12/15 09:38:41;;;;;;;63.55;12.30;;;;;;;3.90;100.00;102098.22;5057060;28;20033;-69
2023/12/15 09:41:07;;;;;;;63.00;13.23;;;;;;;3.94;100.00;102095.19;5057704;28;20063;-69
2023/12/15 09:43:32;;;;;;;62.53;13.40;;;;;;;3.97;100.00;102099.41;5057499;28;20056;-69
2023/12/15 09:45:59;;;;;;;68.50;13.48;;;;;;;4.01;100.00;102106.22;5057153;28;20542;-69
2023/12/15 09:48:27;;;;;;;55.38;12.00;;;;;;;4.10;100.00;102102.78;5040471;28;20592;-69
2023/12/15 09:50:59;;;;;;;62.00;15.48;;;;;;;4.07;100.00;102086.19;5056948;28;20449;-69
2023/12/15 09:53:25;;;;;;;90.15;26.10;;;;;;;4.30;100.00;102100.28;5058727;28;20032;-69
2023/12/15 09:55:51;;;;;;;52.17;11.77;;;;;;;4.20;100.00;102063.75;5056824;28;20032;-69
2023/12/15 09:58:17;;;;;;;60.78;13.35;;;;;;;4.31;100.00;102070.03;5040854;28;20039;-70
2023/12/15 10:00:43;;;;;;;54.63;10.63;;;;;;;4.53;100.00;102085.06;5040856;28;20501;-70
2023/12/15 10:03:09;;;;;;;63.05;11.85;;;;;;;4.63;100.00;102089.50;5057334;28;20055;-70
2023/12/15 10:05:34;;;;;;;66.10;12.52;;;;;;;4.58;100.00;102078.38;5057058;28;20032;-70
2023/12/15 10:08:00;;;;;;;52.55;10.38;;;;;;;4.71;100.00;102073.72;5058627;28;20036;-70
2023/12/15 10:10:26;;;;;;;79.80;11.23;;;;;;;4.75;100.00;102079.63;5058007;28;20025;-70
2023/12/15 10:12:55;;;;;;;58.22;10.95;;;;;;;4.78;100.00;102087.38;5056549;28;20051;-70
2023/12/15 10:15:20;;;;;;;90.78;11.95;;;;;;;4.79;100.00;102093.53;5057139;28;20089;-70
2023/12/15 10:17:46;;;;;;;61.70;10.57;;;;;;;4.80;100.00;102082.75;5056525;28;20044;-70
2023/12/15 10:20:12;;;;;;;67.57;9.57;;;;;;;4.70;100.00;102071.16;5056712;28;20430;-70
2023/12/15 10:22:39;;;;;;;71.10;10.48;;;;;;;4.89;100.00;102084.63;5058588;28;20543;-70
2023/12/15 10:25:21;;;;;;;68.85;10.65;;;;;;;4.93;100.00;102093.22;5056614;28;20245;-70
2023/12/15 10:27:48;;;;;;;73.72;10.65;;;;;;;4.83;100.00;102082.47;5057701;28;20162;-70
2023/12/15 10:30:15;;;;;;;58.42;9.32;;;;;;;5.00;100.00;102104.19;5057761;28;20047;-70
2023/12/15 10:32:41;;;;;;;62.72;9.48;;;;;;;4.97;100.00;102102.66;5057569;28;20025;-70
2023/12/15 10:35:08;;;;;;;67.07;9.05;;;;;;;4.98;100.00;102099.00;5057068;28;20041;-70
2023/12/15 10:37:34;;;;;;;72.93;9.52;;;;;;;4.98;100.00;102103.50;5056605;28;20063;-70
2023/12/15 10:40:01;;;;;;;69.50;9.88;;;;;;;4.98;100.00;102116.84;5057958;28;20028;-69
2023/12/15 10:42:27;;;;;;;63.17;8.50;;;;;;;4.98;100.00;102106.19;5059712;28;20059;-70
2023/12/15 10:44:56;;;;;;;69.40;8.73;;;;;;;4.85;100.00;102085.88;5059451;28;20039;-70
2023/12/15 10:47:24;;;;;;;68.18;8.32;;;;;;;4.99;100.00;102103.34;5077649;28;20016;-70
2023/12/15 10:49:54;;;;;;;73.53;8.48;;;;;;;5.02;100.00;102111.09;5058987;28;20399;-70
2023/12/15 10:52:21;;;;;;;71.03;9.13;;;;;;;5.01;100.00;102109.41;5059578;28;20387;-70
2023/12/15 10:54:51;;;;;;;67.38;9.02;;;;;;;4.94;100.00;102094.91;5077421;28;20032;-70
2023/12/15 10:57:16;;;;;;;76.82;9.52;;;;;;;5.06;100.00;102112.53;5077434;28;20043;-70
2023/12/15 10:59:42;;;;;;;74.82;8.15;;;;;;;5.02;100.00;102096.94;5077389;28;20092;-70
2023/12/15 11:02:13;;;;;;;62.60;8.05;;;;;;;5.07;100.00;102094.72;5059240;28;20119;-70
2023/12/15 11:04:39;;;;;;;80.75;9.57;;;;;;;4.94;100.00;102085.09;5076600;28;20037;-70